logo
Rechercher aéroport 
image banner adimage banner adimage banner ad
image banner ad

YHPG - Hmas Penguin

Situé à Mosman, Australia

ICAO - , IATA -

Données fournies par Airmate  

Information générale

Coordonnées: S33°49'40" E151°15'45"
Élévation : 119 feet MSL.
Variation magnétique : 13° East
Voir autres Aéroports à (unassigned)

Données opérationnelles

Special qualification required
Heure actuelle UTC:
Heure actuelle locale:
Météo à : YSSY - Sydney / Kingsford Smith ( 15 km )
METAR: YSSY 281930Z 33006KT 9999 FEW040 10/08 Q1028 HZ
TAF: TAF YSSY 281715Z 2818/3000 32008KT CAVOK FM290400 04012KT CAVOK FM291100 30008KT CAVOK
Voir NOTAMs / SUP AIP / TFR affectant cet aéroport [VIEW]
Fréquences de communication: [VIEW]

Pistes:

Coordonnées de l'aéroport

Adresse: Mosman Australia

Vue satellite de YHPG